createdAt,value
2023-01-25T00:00:09.336Z,102482.00
2023-01-25T00:02:37.274Z,102490.69
2023-01-25T00:05:05.525Z,102480.44
2023-01-25T00:07:33.291Z,102482.34
2023-01-25T00:10:01.135Z,102481.41
2023-01-25T00:12:30.307Z,102482.22
2023-01-25T00:14:57.969Z,102483.25
2023-01-25T00:17:25.829Z,102472.66
2023-01-25T00:19:53.521Z,102474.97
2023-01-25T00:22:21.178Z,102477.31
2023-01-25T00:24:48.903Z,102472.56
2023-01-25T00:27:16.624Z,102463.72
2023-01-25T00:29:45.756Z,102469.91
2023-01-25T00:32:42.352Z,102466.47
2023-01-25T00:35:13.002Z,102471.50
2023-01-25T00:37:43.603Z,102467.94
2023-01-25T00:40:13.662Z,102462.50
2023-01-25T00:42:41.722Z,102461.63
2023-01-25T00:45:12.813Z,102460.72
2023-01-25T00:47:40.611Z,102452.88
2023-01-25T00:50:10.021Z,102450.34
2023-01-25T00:52:37.881Z,102454.78
2023-01-25T00:55:08.021Z,102455.06
2023-01-25T00:57:35.948Z,102446.31
2023-01-25T01:00:03.787Z,102444.66
2023-01-25T01:02:33.058Z,102449.59
2023-01-25T01:05:00.832Z,102448.47
2023-01-25T01:07:29.001Z,102443.34
2023-01-25T01:09:56.792Z,102452.28
2023-01-25T01:12:24.479Z,102449.31
2023-01-25T01:14:52.183Z,102446.88
2023-01-25T01:17:19.858Z,102444.59
2023-01-25T01:19:49.302Z,102437.06
2023-01-25T01:22:17.178Z,102445.41
2023-01-25T01:24:44.899Z,102438.31
2023-01-25T01:27:12.598Z,102438.91
2023-01-25T01:29:40.246Z,102437.06
2023-01-25T01:32:11.192Z,102445.72
2023-01-25T01:34:38.924Z,102442.66
2023-01-25T01:37:07.997Z,102443.19
2023-01-25T01:39:35.673Z,102439.22
2023-01-25T01:42:03.396Z,102441.78
2023-01-25T01:44:48.813Z,102437.25
2023-01-25T01:47:21.666Z,102435.53
2023-01-25T01:49:54.188Z,102435.84
2023-01-25T01:52:27.055Z,102424.72
2023-01-25T01:54:59.811Z,102423.91
2023-01-25T01:57:33.136Z,102418.59
2023-01-25T02:00:08.497Z,102417.66
2023-01-25T02:02:36.747Z,102420.28
2023-01-25T02:05:08.380Z,102424.56
2023-01-25T02:07:39.223Z,102426.69
2023-01-25T02:10:10.384Z,102424.09
2023-01-25T02:12:39.326Z,102419.81
2023-01-25T02:15:08.792Z,102424.41
2023-01-25T02:17:39.481Z,102425.31
2023-01-25T02:20:14.104Z,102423.31
2023-01-25T02:22:47.448Z,102415.41
2023-01-25T02:25:18.499Z,102426.13
2023-01-25T02:27:51.742Z,102426.13
2023-01-25T02:30:19.460Z,102425.16
2023-01-25T02:32:47.169Z,102423.31
2023-01-25T02:35:20.366Z,102414.06
2023-01-25T02:37:48.172Z,102419.50
2023-01-25T02:40:17.920Z,102417.63
2023-01-25T02:42:46.908Z,102415.59
2023-01-25T02:45:17.552Z,102416.91
2023-01-25T02:47:45.251Z,102416.91
2023-01-25T02:50:15.128Z,102407.59
2023-01-25T02:52:43.728Z,102397.63
2023-01-25T02:55:11.808Z,102406.91
2023-01-25T02:57:41.051Z,102401.63
2023-01-25T03:00:10.010Z,102400.22
2023-01-25T03:02:37.979Z,102408.97
2023-01-25T03:05:06.844Z,102404.69
2023-01-25T03:07:34.710Z,102397.06
2023-01-25T03:10:02.419Z,102404.16
2023-01-25T03:12:30.133Z,102400.75
2023-01-25T03:14:59.164Z,102398.84
2023-01-25T03:17:26.813Z,102398.13
2023-01-25T03:19:55.083Z,102391.44
2023-01-25T03:22:22.850Z,102397.66
2023-01-25T03:24:50.579Z,102394.06
2023-01-25T03:27:18.567Z,102388.78
2023-01-25T03:29:46.630Z,102390.28
2023-01-25T03:32:15.820Z,102388.63
2023-01-25T03:34:43.618Z,102394.91
2023-01-25T03:37:11.693Z,102386.00
2023-01-25T03:39:39.333Z,102391.16
2023-01-25T03:42:07.239Z,102379.91
2023-01-25T03:44:34.946Z,102380.69
2023-01-25T03:47:02.929Z,102387.88
2023-01-25T03:49:32.092Z,102394.06
2023-01-25T03:51:59.909Z,102384.97
2023-01-25T03:54:27.660Z,102385.19
2023-01-25T03:56:55.409Z,102390.50
2023-01-25T03:59:23.151Z,102392.97
2023-01-25T04:01:51.018Z,102388.28
2023-01-25T04:04:18.774Z,102389.91
2023-01-25T04:06:47.955Z,102388.56
2023-01-25T04:09:15.691Z,102378.97
2023-01-25T04:11:43.409Z,102383.31
2023-01-25T04:14:12.128Z,102377.00
2023-01-25T04:16:39.801Z,102375.63
2023-01-25T04:19:07.555Z,102381.69
2023-01-25T04:21:35.320Z,102375.13
2023-01-25T04:24:04.846Z,102374.28
2023-01-25T04:26:32.566Z,102375.13
2023-01-25T04:29:00.205Z,102373.28
2023-01-25T04:31:27.963Z,102375.75
2023-01-25T04:33:56.711Z,102374.72
2023-01-25T04:36:24.506Z,102366.16
2023-01-25T04:38:52.318Z,102369.44
2023-01-25T04:41:26.848Z,102369.28
2023-01-25T04:43:54.492Z,102375.47
2023-01-25T04:46:22.202Z,102367.75
2023-01-25T04:48:49.935Z,102370.22
2023-01-25T04:51:17.666Z,102368.53
2023-01-25T04:53:45.426Z,102371.28
2023-01-25T04:56:13.447Z,102371.28
2023-01-25T04:58:42.543Z,102373.47
2023-01-25T05:01:10.409Z,102363.31
2023-01-25T05:03:38.322Z,102366.72
2023-01-25T05:06:06.310Z,102373.75
2023-01-25T05:08:34.038Z,102359.03
2023-01-25T05:11:01.804Z,102361.31
2023-01-25T05:13:29.507Z,102357.41
2023-01-25T05:15:58.661Z,102358.31
2023-01-25T05:18:33.162Z,102349.63
2023-01-25T05:21:27.088Z,102350.97
2023-01-25T05:23:54.834Z,102337.38
2023-01-25T05:26:39.860Z,102336.88
2023-01-25T05:29:07.593Z,102331.28
2023-01-25T05:31:36.692Z,102330.16
2023-01-25T05:34:04.403Z,102322.94
2023-01-25T05:36:32.176Z,102324.88
2023-01-25T05:38:59.811Z,102309.41
2023-01-25T05:41:27.502Z,102317.16
2023-01-25T05:43:55.185Z,102321.00
2023-01-25T05:46:22.903Z,102312.94
2023-01-25T05:48:51.974Z,102307.34
2023-01-25T05:51:19.789Z,102313.31
2023-01-25T05:53:47.505Z,102311.38
2023-01-25T05:56:15.191Z,102307.72
2023-01-25T05:58:43.049Z,102303.16
2023-01-25T06:01:10.740Z,102307.41
2023-01-25T06:03:38.493Z,102298.34
2023-01-25T06:06:08.011Z,102304.59
2023-01-25T06:08:36.566Z,102299.44
2023-01-25T06:11:08.580Z,102297.81
2023-01-25T06:13:36.404Z,102297.59
2023-01-25T06:16:04.745Z,102304.41
2023-01-25T06:18:33.563Z,102303.50
2023-01-25T06:21:02.383Z,102309.06
2023-01-25T06:23:31.877Z,102305.94
2023-01-25T06:26:00.117Z,102304.78
2023-01-25T06:28:27.804Z,102313.16
2023-01-25T06:30:55.594Z,102311.41
2023-01-25T06:33:23.317Z,102317.50
2023-01-25T06:35:52.457Z,102306.72
2023-01-25T06:38:20.131Z,102312.84
2023-01-25T06:40:49.219Z,102320.13
2023-01-25T06:43:16.964Z,102320.28
2023-01-25T06:45:44.708Z,102315.03
2023-01-25T06:48:12.997Z,102318.72
2023-01-25T06:50:41.484Z,102319.00
2023-01-25T06:53:09.252Z,102320.13
2023-01-25T06:55:37.206Z,102313.22
2023-01-25T06:58:06.251Z,102310.66
2023-01-25T07:00:34.025Z,102309.94
2023-01-25T07:03:02.417Z,102309.47
2023-01-25T07:05:30.121Z,102304.69
2023-01-25T07:07:58.192Z,102315.16
2023-01-25T07:10:25.934Z,102308.84
2023-01-25T07:12:53.632Z,102301.94
2023-01-25T07:15:23.745Z,102307.94
2023-01-25T07:17:51.572Z,102310.47
2023-01-25T07:20:19.435Z,102301.22
2023-01-25T07:22:47.123Z,102308.06
2023-01-25T07:25:15.530Z,102308.84
2023-01-25T07:27:43.253Z,102308.19
2023-01-25T07:30:12.414Z,102310.81
2023-01-25T07:32:41.471Z,102296.63
2023-01-25T07:35:10.265Z,102302.56
2023-01-25T07:37:38.217Z,102310.28
2023-01-25T07:40:06.606Z,102306.56
2023-01-25T07:42:34.341Z,102311.06
2023-01-25T07:45:02.312Z,102320.78
2023-01-25T07:47:30.132Z,102313.09
2023-01-25T07:49:59.286Z,102304.63
2023-01-25T07:52:27.683Z,102309.09
2023-01-25T07:54:55.460Z,102310.81
2023-01-25T07:57:23.207Z,102315.03
2023-01-25T07:59:50.929Z,102315.03
2023-01-25T08:02:18.722Z,102311.38
2023-01-25T08:04:46.573Z,102302.38
2023-01-25T08:07:16.156Z,102306.84
2023-01-25T08:09:43.962Z,102310.28
2023-01-25T08:12:11.700Z,102300.44
2023-01-25T08:14:39.409Z,102303.16
2023-01-25T08:17:07.709Z,102293.81
2023-01-25T08:19:35.655Z,102308.41
2023-01-25T08:22:03.291Z,102301.56
2023-01-25T08:24:32.502Z,102304.34
2023-01-25T08:27:00.608Z,102309.34
2023-01-25T08:29:28.936Z,102311.97
2023-01-25T08:31:56.813Z,102312.81
2023-01-25T08:34:24.685Z,102303.72
2023-01-25T08:36:53.348Z,102299.88
2023-01-25T08:39:21.135Z,102307.94
2023-01-25T08:41:50.275Z,102298.16
2023-01-25T08:44:22.339Z,102298.94
2023-01-25T08:46:50.103Z,102298.03
2023-01-25T08:49:17.956Z,102292.63
2023-01-25T08:51:46.329Z,102283.66
2023-01-25T08:54:14.262Z,102285.38
2023-01-25T08:56:43.194Z,102295.47
2023-01-25T08:59:14.400Z,102289.50
2023-01-25T09:01:42.164Z,102284.09
2023-01-25T09:04:10.238Z,102276.69
2023-01-25T09:06:38.226Z,102275.16
2023-01-25T09:09:06.240Z,102282.59
2023-01-25T09:11:36.956Z,102274.16
2023-01-25T09:14:05.362Z,102274.16
2023-01-25T09:16:34.398Z,102274.66
2023-01-25T09:19:05.418Z,102275.69
2023-01-25T09:21:33.888Z,102277.53
2023-01-25T09:24:07.336Z,102275.69
2023-01-25T09:26:37.298Z,102281.94
2023-01-25T09:29:06.960Z,102282.72
2023-01-25T09:31:36.452Z,102276.34
2023-01-25T09:34:04.647Z,102274.66
2023-01-25T09:36:32.503Z,102272.66
2023-01-25T09:39:00.320Z,102272.44
2023-01-25T09:42:06.748Z,102281.94
2023-01-25T09:44:56.568Z,102281.81
2023-01-25T09:47:32.003Z,102269.44
2023-01-25T09:50:26.562Z,102272.09
2023-01-25T09:53:08.536Z,102272.59
2023-01-25T09:55:37.097Z,102269.94
2023-01-25T09:58:05.305Z,102274.84
2023-01-25T10:00:35.774Z,102273.69
2023-01-25T10:03:12.450Z,102267.50
2023-01-25T10:05:45.794Z,102259.78
2023-01-25T10:08:26.286Z,102258.13
2023-01-25T10:11:01.218Z,102258.06
2023-01-25T10:13:31.823Z,102253.66
2023-01-25T10:16:09.845Z,102260.28
2023-01-25T10:18:52.878Z,102262.59
2023-01-25T10:21:27.653Z,102247.25
2023-01-25T10:24:14.603Z,102251.22
2023-01-25T10:26:48.085Z,102246.25
2023-01-25T10:29:20.152Z,102253.00
2023-01-25T10:31:51.372Z,102248.53
2023-01-25T10:34:22.646Z,102251.47
2023-01-25T10:36:54.802Z,102235.94
2023-01-25T10:39:23.579Z,102232.13
2023-01-25T10:41:54.171Z,102232.97
2023-01-25T10:44:25.527Z,102229.31
2023-01-25T10:47:07.250Z,102218.03
2023-01-25T10:49:42.979Z,102205.03
2023-01-25T10:52:16.781Z,102210.59
2023-01-25T10:54:44.876Z,102207.59
2023-01-25T10:57:18.333Z,102202.03
2023-01-25T10:59:49.095Z,102195.47
2023-01-25T11:02:45.265Z,102188.34
2023-01-25T11:05:33.276Z,102194.19
2023-01-25T11:08:22.863Z,102185.81
2023-01-25T11:10:51.165Z,102173.38
2023-01-25T11:13:22.786Z,102170.31
2023-01-25T11:15:52.905Z,102168.97
2023-01-25T11:18:23.745Z,102166.47
2023-01-25T11:21:07.119Z,102159.19
2023-01-25T11:23:35.432Z,102150.69
2023-01-25T11:26:13.882Z,102147.28
2023-01-25T11:28:41.981Z,102144.03
2023-01-25T11:31:13.578Z,102149.28
2023-01-25T11:33:42.529Z,102144.72
2023-01-25T11:36:34.514Z,102138.38
2023-01-25T11:39:18.338Z,102131.97
2023-01-25T11:41:59.454Z,102128.59
2023-01-25T11:44:53.994Z,102117.66
2023-01-25T11:47:34.248Z,102119.25
2023-01-25T11:50:14.887Z,102114.31
2023-01-25T11:53:00.687Z,102107.03
2023-01-25T11:55:32.188Z,102100.09
2023-01-25T11:58:12.894Z,102100.38
2023-01-25T12:00:56.451Z,102094.66
2023-01-25T12:03:59.082Z,102091.03
2023-01-25T12:06:36.744Z,102094.44
2023-01-25T12:09:21.054Z,102092.81
2023-01-25T12:12:04.947Z,102081.03
2023-01-25T12:14:48.150Z,102074.78
2023-01-25T12:17:37.745Z,102071.78
2023-01-25T12:20:21.477Z,102070.31
2023-01-25T12:23:05.113Z,102056.91
2023-01-25T12:25:46.897Z,102048.53
2023-01-25T12:28:20.917Z,102036.78
2023-01-25T12:30:56.529Z,102033.09
2023-01-25T12:33:29.329Z,102022.00
2023-01-25T12:36:04.204Z,102026.25
2023-01-25T12:38:39.599Z,102017.28
2023-01-25T12:41:20.314Z,102008.75
2023-01-25T12:43:53.363Z,102006.84
2023-01-25T12:46:27.684Z,102003.69
2023-01-25T12:49:01.291Z,101999.28
2023-01-25T12:51:35.398Z,101993.16
2023-01-25T12:54:15.341Z,101986.13
2023-01-25T12:56:54.075Z,101972.50
2023-01-25T12:59:34.528Z,101973.03
2023-01-25T13:02:15.455Z,101972.69
2023-01-25T13:04:57.948Z,101965.44
2023-01-25T13:07:34.659Z,101960.91
2023-01-25T13:10:10.549Z,101965.44
2023-01-25T13:13:16.668Z,101964.88
2023-01-25T13:15:45.896Z,101966.06
2023-01-25T13:18:37.490Z,101965.91
2023-01-25T13:21:11.447Z,101968.53
2023-01-25T13:23:44.017Z,101962.63
2023-01-25T13:26:40.838Z,101962.50
2023-01-25T13:32:59.932Z,101954.91
2023-01-25T13:35:32.751Z,101953.00
2023-01-25T13:38:04.048Z,101946.91
2023-01-25T13:40:34.977Z,101939.78
2023-01-25T13:43:05.090Z,101931.88
2023-01-25T13:45:36.725Z,101925.00
2023-01-25T13:48:13.346Z,101918.22
2023-01-25T13:50:46.674Z,101906.97
2023-01-25T13:53:25.021Z,101903.41
2023-01-25T13:55:54.319Z,101901.19
2023-01-25T13:58:24.659Z,101904.94
2023-01-25T14:00:55.635Z,101896.25
2023-01-25T14:03:27.965Z,101896.94
2023-01-25T14:06:02.440Z,101895.63
2023-01-25T14:08:31.484Z,101903.22
2023-01-25T14:10:59.657Z,101896.78
2023-01-25T14:13:27.423Z,101899.09
2023-01-25T14:15:57.604Z,101898.13
2023-01-25T14:18:31.870Z,101888.66
2023-01-25T14:21:17.362Z,101888.06
2023-01-25T14:23:45.509Z,101886.16
2023-01-25T14:26:19.965Z,101881.25
2023-01-25T14:28:59.304Z,101875.25
2023-01-25T14:31:34.450Z,101878.56
2023-01-25T14:34:04.172Z,101861.50
2023-01-25T14:36:35.269Z,101863.69
2023-01-25T14:39:04.832Z,101858.22
2023-01-25T14:41:35.102Z,101861.47
2023-01-25T14:44:04.809Z,101854.00
2023-01-25T14:46:34.395Z,101852.06
2023-01-25T14:49:25.418Z,101853.78
2023-01-25T14:52:03.273Z,101851.72
2023-01-25T14:54:33.396Z,101848.19
2023-01-25T14:57:03.035Z,101850.09
2023-01-25T14:59:36.775Z,101851.72
2023-01-25T15:02:16.929Z,101840.75
2023-01-25T15:04:57.231Z,101840.00
2023-01-25T15:07:43.861Z,101831.91
2023-01-25T15:10:23.122Z,101821.00
2023-01-25T15:13:11.643Z,101817.09
2023-01-25T15:15:51.945Z,101812.28
2023-01-25T15:18:45.744Z,101809.25
2023-01-25T15:21:14.901Z,101803.06
2023-01-25T15:23:45.661Z,101803.53
2023-01-25T15:26:16.310Z,101802.69
2023-01-25T15:28:43.986Z,101802.09
2023-01-25T15:31:17.852Z,101805.81
2023-01-25T15:33:45.568Z,101803.19
2023-01-25T15:36:15.957Z,101806.59
2023-01-25T15:38:45.764Z,101796.22
2023-01-25T15:41:13.949Z,101788.50
2023-01-25T15:43:42.520Z,101780.63
2023-01-25T15:46:17.215Z,101782.75
2023-01-25T15:48:46.251Z,101777.88
2023-01-25T15:51:14.281Z,101784.56
2023-01-25T15:53:42.085Z,101784.22
2023-01-25T15:56:15.271Z,101774.25
2023-01-25T15:58:45.380Z,101779.81
2023-01-25T16:01:13.129Z,101771.06
2023-01-25T16:03:41.641Z,101778.47
2023-01-25T16:06:32.771Z,101776.09
2023-01-25T16:09:01.553Z,101775.25
2023-01-25T16:11:30.825Z,101773.63
2023-01-25T16:13:58.952Z,101774.91
2023-01-25T16:16:26.991Z,101784.63
2023-01-25T16:18:54.722Z,101784.56
2023-01-25T16:21:22.451Z,101783.88
2023-01-25T16:23:50.102Z,101782.00
2023-01-25T16:26:21.676Z,101783.72
2023-01-25T16:28:50.736Z,101777.41
2023-01-25T16:31:31.951Z,101782.47
2023-01-25T16:34:01.004Z,101776.50
2023-01-25T16:39:20.138Z,101779.50
2023-01-25T16:41:49.284Z,101781.06
2023-01-25T16:44:18.616Z,101773.00
2023-01-25T16:46:47.504Z,101771.47
2023-01-25T16:49:18.002Z,101772.06
2023-01-25T16:51:46.269Z,101759.94
2023-01-25T16:54:13.987Z,101768.75
2023-01-25T16:56:41.648Z,101769.06
2023-01-25T16:59:10.339Z,101759.59
2023-01-25T17:01:41.356Z,101764.50
2023-01-25T17:04:09.391Z,101766.22
2023-01-25T17:06:39.098Z,101754.75
2023-01-25T17:09:21.414Z,101750.00
2023-01-25T17:11:50.206Z,101752.38
2023-01-25T17:14:19.852Z,101744.19
2023-01-25T17:16:51.637Z,101749.25
2023-01-25T17:19:20.954Z,101743.75
2023-01-25T17:21:48.993Z,101741.03
2023-01-25T17:24:19.604Z,101743.69
2023-01-25T17:26:47.693Z,101738.22
2023-01-25T17:29:15.438Z,101741.81
2023-01-25T17:31:44.408Z,101734.25
2023-01-25T17:34:16.214Z,101741.19
2023-01-25T17:36:44.536Z,101741.13
2023-01-25T17:39:15.373Z,101726.03
2023-01-25T17:41:43.506Z,101732.66
2023-01-25T17:44:11.208Z,101728.13
2023-01-25T17:46:39.186Z,101718.56
2023-01-25T17:49:09.313Z,101721.94
2023-01-25T17:51:38.372Z,101716.78
2023-01-25T17:54:07.216Z,101718.56
2023-01-25T17:56:35.851Z,101712.44
2023-01-25T17:59:08.865Z,101698.44
2023-01-25T18:01:37.219Z,101702.78
2023-01-25T18:04:07.870Z,101700.13
2023-01-25T18:06:36.150Z,101696.66
2023-01-25T18:09:07.254Z,101697.22
2023-01-25T18:11:36.736Z,101695.63
2023-01-25T18:14:08.068Z,101693.84
2023-01-25T18:16:38.681Z,101685.09
2023-01-25T18:19:06.763Z,101678.31
2023-01-25T18:21:35.316Z,101676.03
2023-01-25T18:24:07.433Z,101670.78
2023-01-25T18:26:36.989Z,101678.56
2023-01-25T18:29:32.447Z,101678.31
2023-01-25T18:32:00.723Z,101674.75
2023-01-25T18:34:28.449Z,101662.53
2023-01-25T18:36:59.176Z,101662.53
2023-01-25T18:39:28.431Z,101657.28
2023-01-25T18:41:56.166Z,101659.91
2023-01-25T18:44:24.210Z,101657.28
2023-01-25T18:46:51.900Z,101658.19
2023-01-25T18:49:19.750Z,101655.00
2023-01-25T18:52:08.393Z,101654.22
2023-01-25T18:54:37.542Z,101657.63
2023-01-25T18:57:05.487Z,101661.00
2023-01-25T18:59:33.258Z,101657.63
2023-01-25T19:02:01.033Z,101655.81
2023-01-25T19:04:28.771Z,101652.38
2023-01-25T19:06:57.659Z,101653.19
2023-01-25T19:09:27.482Z,101645.72
2023-01-25T19:11:57.234Z,101644.88
2023-01-25T19:14:25.685Z,101647.44
2023-01-25T19:16:57.439Z,101648.28
2023-01-25T19:19:25.141Z,101636.91
2023-01-25T19:21:52.964Z,101634.47
2023-01-25T19:24:21.063Z,101637.09
2023-01-25T19:26:48.909Z,101631.84
2023-01-25T19:29:18.305Z,101629.09
2023-01-25T19:31:46.007Z,101634.19
2023-01-25T19:34:13.879Z,101626.31
2023-01-25T19:36:45.812Z,101631.47
2023-01-25T19:39:14.514Z,101631.47
2023-01-25T19:41:42.245Z,101623.84
2023-01-25T19:44:12.721Z,101619.63
2023-01-25T19:46:41.941Z,101614.34
2023-01-25T19:49:13.302Z,101612.47
2023-01-25T19:51:44.400Z,101607.19
2023-01-25T19:54:15.909Z,101599.22
2023-01-25T19:56:45.754Z,101601.94
2023-01-25T19:59:14.842Z,101599.22
2023-01-25T20:01:47.367Z,101595.75
2023-01-25T20:04:17.459Z,101593.31
2023-01-25T20:06:45.567Z,101593.31
2023-01-25T20:09:14.330Z,101590.56
2023-01-25T20:11:42.365Z,101588.06
2023-01-25T20:14:13.032Z,101584.56
2023-01-25T20:16:41.289Z,101579.41
2023-01-25T20:19:12.670Z,101576.84
2023-01-25T20:21:40.898Z,101583.81
2023-01-25T20:24:10.369Z,101576.75
2023-01-25T20:26:42.519Z,101572.44
2023-01-25T20:29:11.844Z,101567.25
2023-01-25T20:31:41.469Z,101564.63
2023-01-25T20:34:13.224Z,101560.31
2023-01-25T20:36:41.869Z,101563.97
2023-01-25T20:39:11.983Z,101561.22
2023-01-25T20:41:39.892Z,101562.09
2023-01-25T20:44:08.641Z,101558.09
2023-01-25T20:46:38.617Z,101554.56
2023-01-25T20:49:08.326Z,101555.41
2023-01-25T20:51:37.516Z,101550.41
2023-01-25T20:54:05.255Z,101544.31
2023-01-25T20:56:33.552Z,101549.38
2023-01-25T20:59:01.275Z,101555.31
2023-01-25T21:01:30.609Z,101554.97
2023-01-25T21:03:59.132Z,101557.59
2023-01-25T21:06:28.411Z,101552.25
2023-01-25T21:08:59.261Z,101546.13
2023-01-25T21:11:27.301Z,101548.69
2023-01-25T21:13:55.067Z,101543.34
2023-01-25T21:16:23.931Z,101552.94
2023-01-25T21:18:54.473Z,101553.00
2023-01-25T21:21:25.797Z,101544.28
2023-01-25T21:23:55.590Z,101540.72
2023-01-25T21:26:27.515Z,101535.44
2023-01-25T21:28:56.142Z,101531.88
2023-01-25T21:31:26.252Z,101533.66
2023-01-25T21:33:55.200Z,101536.19
2023-01-25T21:36:23.619Z,101537.16
2023-01-25T21:38:52.821Z,101533.75
2023-01-25T21:41:24.406Z,101526.03
2023-01-25T21:44:12.586Z,101530.53
2023-01-25T21:46:41.031Z,101528.00
2023-01-25T21:49:28.583Z,101518.50
2023-01-25T21:51:59.211Z,101522.44
2023-01-25T21:54:28.212Z,101533.69
2023-01-25T21:56:58.152Z,101526.16
2023-01-25T21:59:27.749Z,101522.59
2023-01-25T22:01:56.662Z,101520.72
2023-01-25T22:04:25.764Z,101521.56
2023-01-25T22:06:54.419Z,101512.84
2023-01-25T22:09:22.804Z,101498.00
2023-01-25T22:11:50.861Z,101498.91
2023-01-25T22:14:19.783Z,101488.50
2023-01-25T22:16:48.790Z,101495.38
2023-01-25T22:19:17.783Z,101496.38
2023-01-25T22:21:46.320Z,101492.25
2023-01-25T22:24:14.141Z,101492.34
2023-01-25T22:26:48.418Z,101488.56
2023-01-25T22:29:16.484Z,101483.59
2023-01-25T22:31:44.417Z,101484.59
2023-01-25T22:34:13.556Z,101473.06
2023-01-25T22:36:41.330Z,101471.09
2023-01-25T22:39:09.174Z,101467.97
2023-01-25T22:41:40.132Z,101470.03
2023-01-25T22:44:07.846Z,101463.53
2023-01-25T22:46:35.564Z,101461.91
2023-01-25T22:49:04.740Z,101459.00
2023-01-25T22:51:33.945Z,101459.28
2023-01-25T22:54:01.808Z,101452.09
2023-01-25T22:56:31.952Z,101443.16
2023-01-25T22:59:00.832Z,101443.06
2023-01-25T23:01:33.950Z,101438.94
2023-01-25T23:04:02.628Z,101427.66
2023-01-25T23:06:34.031Z,101420.78
2023-01-25T23:09:05.313Z,101425.22
2023-01-25T23:11:35.597Z,101425.97
2023-01-25T23:14:18.205Z,101417.91
2023-01-25T23:16:46.839Z,101408.13
2023-01-25T23:19:14.532Z,101405.44
2023-01-25T23:21:42.921Z,101414.31
2023-01-25T23:24:12.504Z,101413.59
2023-01-25T23:26:46.253Z,101409.00
2023-01-25T23:29:17.141Z,101401.19
2023-01-25T23:31:44.893Z,101387.31
2023-01-25T23:34:13.584Z,101388.03
2023-01-25T23:36:42.316Z,101383.75
2023-01-25T23:39:14.162Z,101392.72
2023-01-25T23:41:41.852Z,101394.44
2023-01-25T23:44:10.069Z,101387.41
2023-01-25T23:46:37.902Z,101382.06
2023-01-25T23:49:05.701Z,101377.91
2023-01-25T23:51:33.423Z,101380.34
2023-01-25T23:54:01.136Z,101373.56
2023-01-25T23:56:30.183Z,101373.50
2023-01-25T23:58:58.658Z,101369.09
